sensor_id;sensor_type;location;lat;lon;timestamp;P1;durP1;ratioP1;P2;durP2;ratioP2
27003;SDS011;14546;47.590;19.022;2023-12-20T00:00:01;289.05;;;41.40;;
27003;SDS011;14546;47.590;19.022;2023-12-20T00:02:27;164.52;;;35.25;;
27003;SDS011;14546;47.590;19.022;2023-12-20T00:04:53;130.23;;;34.05;;
27003;SDS011;14546;47.590;19.022;2023-12-20T00:07:19;257.65;;;37.35;;
27003;SDS011;14546;47.590;19.022;2023-12-20T00:09:44;329.02;;;37.42;;
27003;SDS011;14546;47.590;19.022;2023-12-20T00:12:10;199.13;;;34.30;;
27003;SDS011;14546;47.590;19.022;2023-12-20T00:14:37;149.57;;;31.77;;
27003;SDS011;14546;47.590;19.022;2023-12-20T00:17:03;187.73;;;33.17;;
27003;SDS011;14546;47.590;19.022;2023-12-20T00:19:29;401.88;;;36.50;;
27003;SDS011;14546;47.590;19.022;2023-12-20T00:21:55;398.48;;;35.63;;
27003;SDS011;14546;47.590;19.022;2023-12-20T00:24:21;688.85;;;45.03;;
27003;SDS011;14546;47.590;19.022;2023-12-20T00:26:47;431.85;;;34.92;;
27003;SDS011;14546;47.590;19.022;2023-12-20T00:29:13;153.43;;;31.38;;
27003;SDS011;14546;47.590;19.022;2023-12-20T00:31:39;323.40;;;32.63;;
27003;SDS011;14546;47.590;19.022;2023-12-20T00:34:05;132.27;;;30.77;;
27003;SDS011;14546;47.590;19.022;2023-12-20T00:36:31;605.67;;;42.00;;
27003;SDS011;14546;47.590;19.022;2023-12-20T00:38:56;333.80;;;35.10;;
27003;SDS011;14546;47.590;19.022;2023-12-20T00:41:23;135.95;;;29.55;;
27003;SDS011;14546;47.590;19.022;2023-12-20T00:43:49;202.40;;;32.65;;
27003;SDS011;14546;47.590;19.022;2023-12-20T00:46:15;189.05;;;31.10;;
27003;SDS011;14546;47.590;19.022;2023-12-20T00:48:41;314.00;;;35.63;;
27003;SDS011;14546;47.590;19.022;2023-12-20T00:51:07;529.72;;;35.92;;
27003;SDS011;14546;47.590;19.022;2023-12-20T00:53:33;111.47;;;31.38;;
27003;SDS011;14546;47.590;19.022;2023-12-20T00:55:59;402.95;;;33.45;;
27003;SDS011;14546;47.590;19.022;2023-12-20T00:58:25;327.73;;;35.88;;
27003;SDS011;14546;47.590;19.022;2023-12-20T01:00:52;283.73;;;31.65;;
27003;SDS011;14546;47.590;19.022;2023-12-20T01:03:19;317.88;;;33.35;;
27003;SDS011;14546;47.590;19.022;2023-12-20T01:05:45;277.92;;;31.77;;
27003;SDS011;14546;47.590;19.022;2023-12-20T01:08:11;313.58;;;32.33;;
27003;SDS011;14546;47.590;19.022;2023-12-20T01:10:37;343.65;;;32.10;;
27003;SDS011;14546;47.590;19.022;2023-12-20T01:13:03;413.00;;;33.95;;
27003;SDS011;14546;47.590;19.022;2023-12-20T01:15:29;550.10;;;33.25;;
27003;SDS011;14546;47.590;19.022;2023-12-20T01:17:55;377.90;;;32.80;;
27003;SDS011;14546;47.590;19.022;2023-12-20T01:20:23;247.60;;;31.60;;
27003;SDS011;14546;47.590;19.022;2023-12-20T01:22:49;303.33;;;36.20;;
27003;SDS011;14546;47.590;19.022;2023-12-20T01:25:15;215.55;;;31.77;;
27003;SDS011;14546;47.590;19.022;2023-12-20T01:27:41;330.90;;;34.40;;
27003;SDS011;14546;47.590;19.022;2023-12-20T01:30:07;215.43;;;29.98;;
27003;SDS011;14546;47.590;19.022;2023-12-20T01:32:34;318.05;;;36.72;;
27003;SDS011;14546;47.590;19.022;2023-12-20T01:35:00;309.35;;;32.42;;
27003;SDS011;14546;47.590;19.022;2023-12-20T01:37:26;287.23;;;34.60;;
27003;SDS011;14546;47.590;19.022;2023-12-20T01:39:54;287.23;;;32.35;;
27003;SDS011;14546;47.590;19.022;2023-12-20T01:42:20;172.50;;;32.58;;
27003;SDS011;14546;47.590;19.022;2023-12-20T01:44:47;225.30;;;30.70;;
27003;SDS011;14546;47.590;19.022;2023-12-20T01:47:13;576.42;;;36.08;;
27003;SDS011;14546;47.590;19.022;2023-12-20T01:49:39;380.58;;;33.88;;
27003;SDS011;14546;47.590;19.022;2023-12-20T01:52:05;297.08;;;32.67;;
27003;SDS011;14546;47.590;19.022;2023-12-20T01:54:31;207.43;;;31.08;;
27003;SDS011;14546;47.590;19.022;2023-12-20T01:56:57;481.60;;;33.92;;
27003;SDS011;14546;47.590;19.022;2023-12-20T01:59:23;432.38;;;33.90;;
27003;SDS011;14546;47.590;19.022;2023-12-20T02:01:50;173.52;;;29.35;;
27003;SDS011;14546;47.590;19.022;2023-12-20T02:04:16;579.72;;;39.05;;
27003;SDS011;14546;47.590;19.022;2023-12-20T02:06:42;110.40;;;30.52;;
27003;SDS011;14546;47.590;19.022;2023-12-20T02:09:08;281.80;;;30.25;;
27003;SDS011;14546;47.590;19.022;2023-12-20T02:11:35;246.50;;;31.10;;
27003;SDS011;14546;47.590;19.022;2023-12-20T02:14:01;333.42;;;31.95;;
27003;SDS011;14546;47.590;19.022;2023-12-20T02:16:27;255.00;;;30.33;;
27003;SDS011;14546;47.590;19.022;2023-12-20T02:18:53;113.22;;;29.85;;
27003;SDS011;14546;47.590;19.022;2023-12-20T02:21:24;96.38;;;29.63;;
27003;SDS011;14546;47.590;19.022;2023-12-20T02:23:50;452.88;;;32.42;;
27003;SDS011;14546;47.590;19.022;2023-12-20T02:26:16;288.75;;;32.30;;
27003;SDS011;14546;47.590;19.022;2023-12-20T02:28:43;157.23;;;29.88;;
27003;SDS011;14546;47.590;19.022;2023-12-20T02:31:09;172.60;;;29.10;;
27003;SDS011;14546;47.590;19.022;2023-12-20T02:33:35;238.23;;;31.45;;
27003;SDS011;14546;47.590;19.022;2023-12-20T02:36:01;306.52;;;32.97;;
27003;SDS011;14546;47.590;19.022;2023-12-20T02:38:27;126.18;;;30.05;;
27003;SDS011;14546;47.590;19.022;2023-12-20T02:40:53;228.95;;;32.13;;
27003;SDS011;14546;47.590;19.022;2023-12-20T02:43:19;123.72;;;30.25;;
27003;SDS011;14546;47.590;19.022;2023-12-20T02:45:45;200.50;;;33.70;;
27003;SDS011;14546;47.590;19.022;2023-12-20T02:48:11;250.82;;;30.92;;
27003;SDS011;14546;47.590;19.022;2023-12-20T02:50:37;294.83;;;33.47;;
27003;SDS011;14546;47.590;19.022;2023-12-20T02:53:04;184.45;;;31.90;;
27003;SDS011;14546;47.590;19.022;2023-12-20T02:55:30;274.27;;;33.15;;
27003;SDS011;14546;47.590;19.022;2023-12-20T02:57:56;419.30;;;37.45;;
27003;SDS011;14546;47.590;19.022;2023-12-20T03:00:22;168.68;;;32.17;;
27003;SDS011;14546;47.590;19.022;2023-12-20T03:02:48;181.45;;;31.30;;
27003;SDS011;14546;47.590;19.022;2023-12-20T03:05:14;182.65;;;33.03;;
27003;SDS011;14546;47.590;19.022;2023-12-20T03:07:40;153.68;;;31.67;;
27003;SDS011;14546;47.590;19.022;2023-12-20T03:10:06;132.27;;;33.85;;
27003;SDS011;14546;47.590;19.022;2023-12-20T03:12:33;231.02;;;35.38;;
27003;SDS011;14546;47.590;19.022;2023-12-20T03:14:59;157.68;;;32.88;;
27003;SDS011;14546;47.590;19.022;2023-12-20T03:17:25;228.35;;;32.92;;
27003;SDS011;14546;47.590;19.022;2023-12-20T03:19:51;145.25;;;31.13;;
27003;SDS011;14546;47.590;19.022;2023-12-20T03:22:17;236.20;;;33.17;;
27003;SDS011;14546;47.590;19.022;2023-12-20T03:24:43;117.75;;;31.77;;
27003;SDS011;14546;47.590;19.022;2023-12-20T03:27:09;185.90;;;31.25;;
27003;SDS011;14546;47.590;19.022;2023-12-20T03:29:35;196.02;;;30.80;;
27003;SDS011;14546;47.590;19.022;2023-12-20T03:32:01;229.02;;;30.30;;
27003;SDS011;14546;47.590;19.022;2023-12-20T03:34:27;137.15;;;30.38;;
27003;SDS011;14546;47.590;19.022;2023-12-20T03:36:54;172.18;;;28.48;;
27003;SDS011;14546;47.590;19.022;2023-12-20T03:39:20;135.65;;;30.10;;
27003;SDS011;14546;47.590;19.022;2023-12-20T03:41:46;85.03;;;28.42;;
27003;SDS011;14546;47.590;19.022;2023-12-20T03:44:12;239.20;;;29.95;;
27003;SDS011;14546;47.590;19.022;2023-12-20T03:46:38;109.90;;;29.13;;
27003;SDS011;14546;47.590;19.022;2023-12-20T03:49:04;90.20;;;28.17;;
27003;SDS011;14546;47.590;19.022;2023-12-20T03:51:30;149.13;;;29.05;;
27003;SDS011;14546;47.590;19.022;2023-12-20T03:53:56;108.38;;;25.25;;
27003;SDS011;14546;47.590;19.022;2023-12-20T03:56:22;150.52;;;30.88;;
27003;SDS011;14546;47.590;19.022;2023-12-20T03:58:48;155.43;;;30.17;;
27003;SDS011;14546;47.590;19.022;2023-12-20T04:01:14;204.98;;;32.15;;
27003;SDS011;14546;47.590;19.022;2023-12-20T04:03:41;82.70;;;27.15;;
27003;SDS011;14546;47.590;19.022;2023-12-20T04:06:07;97.57;;;28.48;;
27003;SDS011;14546;47.590;19.022;2023-12-20T04:08:33;289.50;;;29.23;;
27003;SDS011;14546;47.590;19.022;2023-12-20T04:10:59;79.05;;;26.05;;
27003;SDS011;14546;47.590;19.022;2023-12-20T04:13:25;141.60;;;33.05;;
27003;SDS011;14546;47.590;19.022;2023-12-20T04:15:51;118.25;;;28.75;;
27003;SDS011;14546;47.590;19.022;2023-12-20T04:18:17;94.90;;;26.35;;
27003;SDS011;14546;47.590;19.022;2023-12-20T04:20:43;120.20;;;27.35;;
27003;SDS011;14546;47.590;19.022;2023-12-20T04:23:09;180.38;;;27.33;;
27003;SDS011;14546;47.590;19.022;2023-12-20T04:25:35;133.48;;;28.33;;
27003;SDS011;14546;47.590;19.022;2023-12-20T04:28:01;135.00;;;26.92;;
27003;SDS011;14546;47.590;19.022;2023-12-20T04:30:27;110.97;;;26.58;;
27003;SDS011;14546;47.590;19.022;2023-12-20T04:32:53;115.78;;;25.85;;
27003;SDS011;14546;47.590;19.022;2023-12-20T04:35:20;115.47;;;27.42;;
27003;SDS011;14546;47.590;19.022;2023-12-20T04:37:46;163.15;;;27.90;;
27003;SDS011;14546;47.590;19.022;2023-12-20T04:40:14;110.45;;;26.27;;
27003;SDS011;14546;47.590;19.022;2023-12-20T04:42:40;132.98;;;28.25;;
27003;SDS011;14546;47.590;19.022;2023-12-20T04:45:06;119.22;;;27.20;;
27003;SDS011;14546;47.590;19.022;2023-12-20T04:47:32;149.43;;;29.35;;
27003;SDS011;14546;47.590;19.022;2023-12-20T04:49:59;169.50;;;27.98;;
27003;SDS011;14546;47.590;19.022;2023-12-20T04:52:25;81.78;;;28.00;;
27003;SDS011;14546;47.590;19.022;2023-12-20T04:54:51;101.35;;;27.83;;
27003;SDS011;14546;47.590;19.022;2023-12-20T04:57:17;222.40;;;28.50;;
27003;SDS011;14546;47.590;19.022;2023-12-20T04:59:43;112.45;;;29.58;;
27003;SDS011;14546;47.590;19.022;2023-12-20T05:02:09;134.65;;;29.95;;
27003;SDS011;14546;47.590;19.022;2023-12-20T05:04:35;115.05;;;29.98;;
27003;SDS011;14546;47.590;19.022;2023-12-20T05:07:01;91.45;;;29.17;;
27003;SDS011;14546;47.590;19.022;2023-12-20T05:09:29;370.73;;;30.02;;
27003;SDS011;14546;47.590;19.022;2023-12-20T05:11:56;282.67;;;28.35;;
27003;SDS011;14546;47.590;19.022;2023-12-20T05:14:22;185.00;;;30.52;;
27003;SDS011;14546;47.590;19.022;2023-12-20T05:16:48;193.38;;;27.92;;
27003;SDS011;14546;47.590;19.022;2023-12-20T05:19:14;261.27;;;29.38;;
27003;SDS011;14546;47.590;19.022;2023-12-20T05:21:41;311.92;;;28.75;;
27003;SDS011;14546;47.590;19.022;2023-12-20T05:24:08;105.57;;;28.52;;
27003;SDS011;14546;47.590;19.022;2023-12-20T05:26:34;134.75;;;27.58;;
27003;SDS011;14546;47.590;19.022;2023-12-20T05:29:01;184.90;;;25.42;;
27003;SDS011;14546;47.590;19.022;2023-12-20T05:31:27;112.50;;;27.08;;
27003;SDS011;14546;47.590;19.022;2023-12-20T05:33:53;78.32;;;28.55;;
27003;SDS011;14546;47.590;19.022;2023-12-20T05:36:19;166.20;;;28.55;;
27003;SDS011;14546;47.590;19.022;2023-12-20T05:38:45;202.80;;;26.95;;
27003;SDS011;14546;47.590;19.022;2023-12-20T05:41:11;233.20;;;28.08;;
27003;SDS011;14546;47.590;19.022;2023-12-20T05:43:38;106.90;;;26.67;;
27003;SDS011;14546;47.590;19.022;2023-12-20T05:46:04;168.10;;;27.27;;
27003;SDS011;14546;47.590;19.022;2023-12-20T05:48:30;257.58;;;26.70;;
27003;SDS011;14546;47.590;19.022;2023-12-20T05:50:56;78.85;;;27.15;;
27003;SDS011;14546;47.590;19.022;2023-12-20T05:53:23;109.70;;;27.60;;
27003;SDS011;14546;47.590;19.022;2023-12-20T05:55:49;118.50;;;28.48;;
27003;SDS011;14546;47.590;19.022;2023-12-20T05:58:15;227.00;;;28.83;;
27003;SDS011;14546;47.590;19.022;2023-12-20T06:00:41;325.00;;;30.23;;
27003;SDS011;14546;47.590;19.022;2023-12-20T06:03:08;123.03;;;26.55;;
27003;SDS011;14546;47.590;19.022;2023-12-20T06:05:35;67.75;;;27.52;;
27003;SDS011;14546;47.590;19.022;2023-12-20T06:08:01;153.38;;;28.50;;
27003;SDS011;14546;47.590;19.022;2023-12-20T06:10:28;114.88;;;28.00;;
27003;SDS011;14546;47.590;19.022;2023-12-20T06:12:55;137.43;;;28.17;;
27003;SDS011;14546;47.590;19.022;2023-12-20T06:15:23;169.05;;;27.65;;
27003;SDS011;14546;47.590;19.022;2023-12-20T06:17:50;245.73;;;28.60;;
27003;SDS011;14546;47.590;19.022;2023-12-20T06:20:16;260.55;;;30.77;;
27003;SDS011;14546;47.590;19.022;2023-12-20T06:22:43;90.55;;;25.25;;
27003;SDS011;14546;47.590;19.022;2023-12-20T06:25:09;387.80;;;29.55;;
27003;SDS011;14546;47.590;19.022;2023-12-20T06:27:35;100.63;;;26.48;;
27003;SDS011;14546;47.590;19.022;2023-12-20T06:30:01;91.38;;;26.98;;
27003;SDS011;14546;47.590;19.022;2023-12-20T06:32:28;104.03;;;29.02;;
27003;SDS011;14546;47.590;19.022;2023-12-20T06:34:54;154.50;;;30.42;;
27003;SDS011;14546;47.590;19.022;2023-12-20T06:37:20;164.73;;;28.58;;
27003;SDS011;14546;47.590;19.022;2023-12-20T06:39:46;78.57;;;28.80;;
27003;SDS011;14546;47.590;19.022;2023-12-20T06:42:12;134.18;;;27.77;;
27003;SDS011;14546;47.590;19.022;2023-12-20T06:44:38;184.63;;;26.60;;
27003;SDS011;14546;47.590;19.022;2023-12-20T06:47:05;112.63;;;24.50;;
27003;SDS011;14546;47.590;19.022;2023-12-20T06:49:31;83.43;;;22.20;;
27003;SDS011;14546;47.590;19.022;2023-12-20T06:51:57;70.45;;;23.90;;
27003;SDS011;14546;47.590;19.022;2023-12-20T06:54:23;112.60;;;22.73;;
27003;SDS011;14546;47.590;19.022;2023-12-20T06:56:49;122.63;;;25.90;;
27003;SDS011;14546;47.590;19.022;2023-12-20T06:59:15;57.45;;;22.45;;
27003;SDS011;14546;47.590;19.022;2023-12-20T07:01:41;82.70;;;25.02;;
27003;SDS011;14546;47.590;19.022;2023-12-20T07:04:07;64.15;;;23.65;;
27003;SDS011;14546;47.590;19.022;2023-12-20T07:06:33;66.45;;;25.10;;
27003;SDS011;14546;47.590;19.022;2023-12-20T07:08:59;68.78;;;27.17;;
27003;SDS011;14546;47.590;19.022;2023-12-20T07:11:25;82.75;;;28.98;;
27003;SDS011;14546;47.590;19.022;2023-12-20T07:13:51;60.60;;;26.42;;
27003;SDS011;14546;47.590;19.022;2023-12-20T07:16:17;67.07;;;26.70;;
27003;SDS011;14546;47.590;19.022;2023-12-20T07:18:44;63.28;;;27.85;;
27003;SDS011;14546;47.590;19.022;2023-12-20T07:21:10;68.40;;;27.40;;
27003;SDS011;14546;47.590;19.022;2023-12-20T07:23:36;73.45;;;26.60;;
27003;SDS011;14546;47.590;19.022;2023-12-20T07:26:02;72.18;;;28.63;;
27003;SDS011;14546;47.590;19.022;2023-12-20T07:28:29;78.88;;;28.10;;
27003;SDS011;14546;47.590;19.022;2023-12-20T07:30:55;105.18;;;28.15;;
27003;SDS011;14546;47.590;19.022;2023-12-20T07:33:21;154.60;;;27.75;;
27003;SDS011;14546;47.590;19.022;2023-12-20T07:35:47;88.82;;;27.58;;
27003;SDS011;14546;47.590;19.022;2023-12-20T07:38:14;189.40;;;27.75;;
27003;SDS011;14546;47.590;19.022;2023-12-20T07:40:41;89.78;;;26.88;;
27003;SDS011;14546;47.590;19.022;2023-12-20T07:43:07;136.95;;;26.77;;
27003;SDS011;14546;47.590;19.022;2023-12-20T07:45:33;127.72;;;29.90;;
27003;SDS011;14546;47.590;19.022;2023-12-20T07:47:59;117.60;;;28.27;;
27003;SDS011;14546;47.590;19.022;2023-12-20T07:50:25;119.78;;;30.38;;
27003;SDS011;14546;47.590;19.022;2023-12-20T07:52:52;206.07;;;32.67;;
27003;SDS011;14546;47.590;19.022;2023-12-20T07:55:19;200.35;;;29.52;;
27003;SDS011;14546;47.590;19.022;2023-12-20T07:57:45;88.15;;;30.05;;
27003;SDS011;14546;47.590;19.022;2023-12-20T08:00:11;211.48;;;32.47;;
27003;SDS011;14546;47.590;19.022;2023-12-20T08:02:38;179.15;;;31.05;;
27003;SDS011;14546;47.590;19.022;2023-12-20T08:05:05;176.60;;;29.70;;
27003;SDS011;14546;47.590;19.022;2023-12-20T08:07:32;116.85;;;32.38;;
27003;SDS011;14546;47.590;19.022;2023-12-20T08:09:58;172.27;;;34.53;;
27003;SDS011;14546;47.590;19.022;2023-12-20T08:12:24;198.45;;;33.80;;
27003;SDS011;14546;47.590;19.022;2023-12-20T08:14:52;106.90;;;31.58;;
27003;SDS011;14546;47.590;19.022;2023-12-20T08:17:19;125.07;;;32.95;;
27003;SDS011;14546;47.590;19.022;2023-12-20T08:19:45;87.15;;;30.88;;
27003;SDS011;14546;47.590;19.022;2023-12-20T08:22:11;77.53;;;30.00;;
27003;SDS011;14546;47.590;19.022;2023-12-20T08:24:37;154.98;;;31.80;;
27003;SDS011;14546;47.590;19.022;2023-12-20T08:27:04;162.35;;;39.25;;
27003;SDS011;14546;47.590;19.022;2023-12-20T08:29:30;114.90;;;36.70;;
27003;SDS011;14546;47.590;19.022;2023-12-20T08:31:56;195.80;;;37.35;;
27003;SDS011;14546;47.590;19.022;2023-12-20T08:34:23;200.25;;;38.25;;
27003;SDS011;14546;47.590;19.022;2023-12-20T08:36:50;114.28;;;36.55;;
27003;SDS011;14546;47.590;19.022;2023-12-20T08:39:16;137.77;;;36.97;;
27003;SDS011;14546;47.590;19.022;2023-12-20T08:41:43;201.43;;;36.17;;
27003;SDS011;14546;47.590;19.022;2023-12-20T08:44:09;105.88;;;36.25;;
27003;SDS011;14546;47.590;19.022;2023-12-20T08:46:35;130.15;;;34.22;;
27003;SDS011;14546;47.590;19.022;2023-12-20T08:49:02;115.38;;;34.55;;
27003;SDS011;14546;47.590;19.022;2023-12-20T08:51:28;111.88;;;34.95;;
27003;SDS011;14546;47.590;19.022;2023-12-20T08:53:54;121.20;;;34.88;;
27003;SDS011;14546;47.590;19.022;2023-12-20T08:56:20;118.78;;;35.42;;
27003;SDS011;14546;47.590;19.022;2023-12-20T08:58:46;138.20;;;38.13;;
27003;SDS011;14546;47.590;19.022;2023-12-20T09:01:12;105.00;;;40.47;;
27003;SDS011;14546;47.590;19.022;2023-12-20T09:03:39;112.90;;;35.08;;
27003;SDS011;14546;47.590;19.022;2023-12-20T09:06:05;110.13;;;34.97;;
27003;SDS011;14546;47.590;19.022;2023-12-20T09:08:31;103.53;;;35.85;;
27003;SDS011;14546;47.590;19.022;2023-12-20T09:10:58;82.18;;;34.33;;
27003;SDS011;14546;47.590;19.022;2023-12-20T09:13:24;89.32;;;34.70;;
27003;SDS011;14546;47.590;19.022;2023-12-20T09:15:54;94.43;;;35.60;;
27003;SDS011;14546;47.590;19.022;2023-12-20T09:18:20;94.93;;;37.03;;
27003;SDS011;14546;47.590;19.022;2023-12-20T09:20:46;88.50;;;35.08;;
27003;SDS011;14546;47.590;19.022;2023-12-20T09:23:12;89.75;;;37.72;;
27003;SDS011;14546;47.590;19.022;2023-12-20T09:25:38;91.00;;;38.38;;
27003;SDS011;14546;47.590;19.022;2023-12-20T09:28:04;92.55;;;37.40;;
27003;SDS011;14546;47.590;19.022;2023-12-20T09:30:31;90.38;;;36.28;;
27003;SDS011;14546;47.590;19.022;2023-12-20T09:32:57;86.57;;;36.13;;
27003;SDS011;14546;47.590;19.022;2023-12-20T09:35:24;88.85;;;35.42;;
27003;SDS011;14546;47.590;19.022;2023-12-20T09:37:51;83.38;;;33.90;;
27003;SDS011;14546;47.590;19.022;2023-12-20T09:40:20;79.70;;;34.55;;
27003;SDS011;14546;47.590;19.022;2023-12-20T09:43:08;75.40;;;33.88;;
27003;SDS011;14546;47.590;19.022;2023-12-20T09:45:36;83.90;;;34.88;;
27003;SDS011;14546;47.590;19.022;2023-12-20T09:48:03;77.30;;;34.70;;
27003;SDS011;14546;47.590;19.022;2023-12-20T09:50:30;83.40;;;34.50;;
27003;SDS011;14546;47.590;19.022;2023-12-20T09:52:57;76.35;;;33.75;;
27003;SDS011;14546;47.590;19.022;2023-12-20T09:55:24;72.38;;;34.25;;
27003;SDS011;14546;47.590;19.022;2023-12-20T09:57:50;73.00;;;34.83;;
27003;SDS011;14546;47.590;19.022;2023-12-20T10:00:17;63.97;;;32.25;;
27003;SDS011;14546;47.590;19.022;2023-12-20T10:03:16;61.33;;;32.40;;
27003;SDS011;14546;47.590;19.022;2023-12-20T10:05:35;55.38;;;30.33;;
27003;SDS011;14546;47.590;19.022;2023-12-20T10:08:01;63.90;;;32.70;;
27003;SDS011;14546;47.590;19.022;2023-12-20T10:10:28;69.55;;;33.08;;
27003;SDS011;14546;47.590;19.022;2023-12-20T10:13:04;66.35;;;33.75;;
27003;SDS011;14546;47.590;19.022;2023-12-20T10:15:30;68.93;;;34.15;;
27003;SDS011;14546;47.590;19.022;2023-12-20T10:17:56;73.20;;;36.30;;
27003;SDS011;14546;47.590;19.022;2023-12-20T10:20:23;67.75;;;34.58;;
27003;SDS011;14546;47.590;19.022;2023-12-20T10:22:49;58.75;;;32.97;;
27003;SDS011;14546;47.590;19.022;2023-12-20T10:25:18;63.78;;;33.45;;
27003;SDS011;14546;47.590;19.022;2023-12-20T10:27:44;62.50;;;34.20;;
27003;SDS011;14546;47.590;19.022;2023-12-20T10:30:10;55.95;;;32.75;;
27003;SDS011;14546;47.590;19.022;2023-12-20T10:32:36;62.75;;;33.08;;
27003;SDS011;14546;47.590;19.022;2023-12-20T10:35:02;58.50;;;31.02;;
27003;SDS011;14546;47.590;19.022;2023-12-20T10:37:29;54.95;;;31.65;;
27003;SDS011;14546;47.590;19.022;2023-12-20T10:39:55;55.80;;;30.88;;
27003;SDS011;14546;47.590;19.022;2023-12-20T10:42:22;55.35;;;31.70;;
27003;SDS011;14546;47.590;19.022;2023-12-20T10:44:50;53.63;;;32.45;;
27003;SDS011;14546;47.590;19.022;2023-12-20T10:47:16;51.78;;;31.05;;
27003;SDS011;14546;47.590;19.022;2023-12-20T10:49:42;51.30;;;31.58;;
27003;SDS011;14546;47.590;19.022;2023-12-20T10:52:09;54.33;;;31.80;;
27003;SDS011;14546;47.590;19.022;2023-12-20T10:54:37;56.55;;;30.88;;
27003;SDS011;14546;47.590;19.022;2023-12-20T10:57:05;53.58;;;31.60;;
27003;SDS011;14546;47.590;19.022;2023-12-20T10:59:36;54.78;;;30.83;;
27003;SDS011;14546;47.590;19.022;2023-12-20T11:02:02;49.72;;;30.52;;
27003;SDS011;14546;47.590;19.022;2023-12-20T11:04:43;54.38;;;31.73;;
27003;SDS011;14546;47.590;19.022;2023-12-20T11:09:40;44.65;;;27.58;;
27003;SDS011;14546;47.590;19.022;2023-12-20T11:12:10;47.67;;;28.17;;
27003;SDS011;14546;47.590;19.022;2023-12-20T11:14:56;43.70;;;24.92;;
27003;SDS011;14546;47.590;19.022;2023-12-20T11:17:22;39.17;;;24.67;;
27003;SDS011;14546;47.590;19.022;2023-12-20T11:22:21;31.40;;;19.17;;
27003;SDS011;14546;47.590;19.022;2023-12-20T11:24:48;26.00;;;17.73;;
27003;SDS011;14546;47.590;19.022;2023-12-20T11:27:14;26.88;;;17.10;;
27003;SDS011;14546;47.590;19.022;2023-12-20T11:29:40;24.05;;;15.98;;
27003;SDS011;14546;47.590;19.022;2023-12-20T11:34:55;26.98;;;14.75;;
27003;SDS011;14546;47.590;19.022;2023-12-20T11:37:21;27.23;;;16.85;;
27003;SDS011;14546;47.590;19.022;2023-12-20T11:39:54;27.70;;;17.63;;
27003;SDS011;14546;47.590;19.022;2023-12-20T11:42:21;25.75;;;15.95;;
27003;SDS011;14546;47.590;19.022;2023-12-20T11:44:47;27.75;;;17.65;;
27003;SDS011;14546;47.590;19.022;2023-12-20T11:47:13;29.08;;;17.63;;
27003;SDS011;14546;47.590;19.022;2023-12-20T11:49:40;29.13;;;17.15;;
27003;SDS011;14546;47.590;19.022;2023-12-20T11:52:06;29.60;;;18.58;;
27003;SDS011;14546;47.590;19.022;2023-12-20T11:54:32;27.52;;;17.88;;
27003;SDS011;14546;47.590;19.022;2023-12-20T11:56:58;29.10;;;16.25;;
27003;SDS011;14546;47.590;19.022;2023-12-20T11:59:25;30.40;;;18.33;;
27003;SDS011;14546;47.590;19.022;2023-12-20T12:01:51;28.77;;;19.10;;
27003;SDS011;14546;47.590;19.022;2023-12-20T12:04:17;32.13;;;16.27;;
27003;SDS011;14546;47.590;19.022;2023-12-20T12:06:44;30.60;;;17.83;;
27003;SDS011;14546;47.590;19.022;2023-12-20T12:09:10;27.60;;;17.65;;
27003;SDS011;14546;47.590;19.022;2023-12-20T12:11:36;30.40;;;17.65;;
27003;SDS011;14546;47.590;19.022;2023-12-20T12:14:03;26.48;;;16.60;;
27003;SDS011;14546;47.590;19.022;2023-12-20T12:16:29;26.23;;;17.42;;
27003;SDS011;14546;47.590;19.022;2023-12-20T12:18:56;23.02;;;15.20;;
27003;SDS011;14546;47.590;19.022;2023-12-20T12:21:22;25.67;;;16.13;;
27003;SDS011;14546;47.590;19.022;2023-12-20T12:23:48;26.08;;;15.35;;
27003;SDS011;14546;47.590;19.022;2023-12-20T12:26:14;31.95;;;17.92;;
27003;SDS011;14546;47.590;19.022;2023-12-20T12:28:40;24.10;;;15.52;;
27003;SDS011;14546;47.590;19.022;2023-12-20T12:31:07;32.10;;;16.50;;
27003;SDS011;14546;47.590;19.022;2023-12-20T12:33:33;25.92;;;15.95;;
27003;SDS011;14546;47.590;19.022;2023-12-20T12:36:00;26.10;;;15.40;;
27003;SDS011;14546;47.590;19.022;2023-12-20T12:38:26;25.45;;;14.60;;
27003;SDS011;14546;47.590;19.022;2023-12-20T12:40:54;23.90;;;14.48;;
27003;SDS011;14546;47.590;19.022;2023-12-20T12:43:20;23.45;;;14.23;;
27003;SDS011;14546;47.590;19.022;2023-12-20T12:45:47;23.70;;;14.10;;
27003;SDS011;14546;47.590;19.022;2023-12-20T12:48:14;27.67;;;15.13;;
27003;SDS011;14546;47.590;19.022;2023-12-20T12:50:40;25.10;;;14.52;;
27003;SDS011;14546;47.590;19.022;2023-12-20T12:53:06;26.60;;;15.50;;
27003;SDS011;14546;47.590;19.022;2023-12-20T12:55:33;25.25;;;14.88;;
27003;SDS011;14546;47.590;19.022;2023-12-20T12:58:00;26.85;;;13.90;;
27003;SDS011;14546;47.590;19.022;2023-12-20T13:00:27;25.55;;;15.00;;
27003;SDS011;14546;47.590;19.022;2023-12-20T13:02:53;24.60;;;13.70;;
27003;SDS011;14546;47.590;19.022;2023-12-20T13:05:19;28.17;;;15.90;;
27003;SDS011;14546;47.590;19.022;2023-12-20T13:07:45;28.27;;;15.15;;
27003;SDS011;14546;47.590;19.022;2023-12-20T13:10:12;26.83;;;15.00;;
27003;SDS011;14546;47.590;19.022;2023-12-20T13:12:41;28.20;;;15.80;;
27003;SDS011;14546;47.590;19.022;2023-12-20T13:15:07;29.05;;;15.35;;
27003;SDS011;14546;47.590;19.022;2023-12-20T13:17:34;25.15;;;15.20;;
27003;SDS011;14546;47.590;19.022;2023-12-20T13:20:00;27.92;;;14.45;;
27003;SDS011;14546;47.590;19.022;2023-12-20T13:22:26;26.92;;;15.27;;
27003;SDS011;14546;47.590;19.022;2023-12-20T13:24:52;24.42;;;14.40;;
27003;SDS011;14546;47.590;19.022;2023-12-20T13:27:18;27.52;;;15.02;;
27003;SDS011;14546;47.590;19.022;2023-12-20T13:29:44;26.50;;;15.77;;
27003;SDS011;14546;47.590;19.022;2023-12-20T13:32:10;26.77;;;15.98;;
27003;SDS011;14546;47.590;19.022;2023-12-20T13:34:36;26.40;;;15.98;;
27003;SDS011;14546;47.590;19.022;2023-12-20T13:37:02;27.17;;;16.20;;
27003;SDS011;14546;47.590;19.022;2023-12-20T13:39:29;27.95;;;15.70;;
27003;SDS011;14546;47.590;19.022;2023-12-20T13:41:56;31.75;;;17.38;;
27003;SDS011;14546;47.590;19.022;2023-12-20T13:44:22;31.10;;;17.05;;
27003;SDS011;14546;47.590;19.022;2023-12-20T13:46:49;28.15;;;16.33;;
27003;SDS011;14546;47.590;19.022;2023-12-20T13:49:16;27.85;;;15.60;;
27003;SDS011;14546;47.590;19.022;2023-12-20T13:51:42;26.95;;;13.48;;
27003;SDS011;14546;47.590;19.022;2023-12-20T13:54:08;29.38;;;15.73;;
27003;SDS011;14546;47.590;19.022;2023-12-20T13:56:35;32.85;;;17.33;;
27003;SDS011;14546;47.590;19.022;2023-12-20T13:59:01;35.97;;;19.52;;
27003;SDS011;14546;47.590;19.022;2023-12-20T14:01:27;32.42;;;17.67;;
27003;SDS011;14546;47.590;19.022;2023-12-20T14:03:54;31.75;;;16.60;;